createdAt,value
2023-05-10T00:00:29.658Z,58.90
2023-05-10T00:02:56.744Z,59.10
2023-05-10T00:05:23.736Z,59.30
2023-05-10T00:07:50.685Z,59.20
2023-05-10T00:10:19.207Z,59.30
2023-05-10T00:12:46.232Z,59.20
2023-05-10T00:15:13.194Z,59.30
2023-05-10T00:17:40.290Z,59.30
2023-05-10T00:20:07.800Z,59.50
2023-05-10T00:22:34.691Z,59.30
2023-05-10T00:25:01.955Z,59.20
2023-05-10T00:27:28.812Z,59.20
2023-05-10T00:29:55.820Z,59.30
2023-05-10T00:32:22.734Z,59.50
2023-05-10T00:34:49.707Z,59.70
2023-05-10T00:37:16.613Z,59.70
2023-05-10T00:39:43.602Z,59.80
2023-05-10T00:42:11.887Z,59.70
2023-05-10T00:44:39.015Z,59.60
2023-05-10T00:47:07.028Z,59.50
2023-05-10T00:49:34.115Z,59.70
2023-05-10T00:52:01.214Z,59.80
2023-05-10T00:54:28.107Z,60.00
2023-05-10T00:56:55.162Z,60.10
2023-05-10T00:59:22.391Z,60.20
2023-05-10T01:01:50.216Z,60.20
2023-05-10T01:04:17.312Z,60.40
2023-05-10T01:06:44.803Z,60.50
2023-05-10T01:09:12.759Z,60.60
2023-05-10T01:11:41.281Z,60.90
2023-05-10T01:14:08.696Z,61.00
2023-05-10T01:16:41.636Z,61.00
2023-05-10T01:19:18.095Z,61.10
2023-05-10T01:22:05.817Z,61.00
2023-05-10T01:24:44.845Z,60.70
2023-05-10T01:27:46.076Z,60.80
2023-05-10T01:30:51.031Z,60.90
2023-05-10T01:33:48.896Z,60.80
2023-05-10T01:36:40.623Z,60.90
2023-05-10T01:39:21.386Z,61.20
2023-05-10T01:42:04.545Z,61.40
2023-05-10T01:44:43.914Z,61.60
2023-05-10T01:47:20.529Z,61.70
2023-05-10T01:49:54.291Z,61.30
2023-05-10T01:52:28.028Z,62.20
2023-05-10T01:55:03.555Z,61.60
2023-05-10T01:57:35.169Z,61.50
2023-05-10T02:00:07.006Z,61.50
2023-05-10T02:02:44.303Z,61.40
2023-05-10T02:05:14.568Z,61.10
2023-05-10T02:07:43.043Z,61.00
2023-05-10T02:10:12.419Z,61.30
2023-05-10T02:12:44.227Z,61.50
2023-05-10T02:15:13.741Z,61.30
2023-05-10T02:17:43.183Z,61.60
2023-05-10T02:22:59.735Z,61.70
2023-05-10T02:25:27.229Z,61.80
2023-05-10T02:27:57.770Z,61.90
2023-05-10T02:30:25.648Z,61.90
2023-05-10T02:32:53.680Z,61.90
2023-05-10T02:35:21.510Z,61.90
2023-05-10T02:37:49.578Z,62.10
2023-05-10T02:40:18.722Z,61.90
2023-05-10T02:42:48.420Z,62.10
2023-05-10T02:45:21.345Z,62.20
2023-05-10T02:47:48.925Z,62.20
2023-05-10T02:50:16.227Z,62.30
2023-05-10T02:52:48.166Z,62.30
2023-05-10T02:55:17.228Z,62.60
2023-05-10T02:57:53.075Z,62.70
2023-05-10T03:00:20.177Z,62.80
2023-05-10T03:02:47.173Z,63.00
2023-05-10T03:05:14.466Z,63.00
2023-05-10T03:07:41.735Z,62.90
2023-05-10T03:10:09.200Z,63.10
2023-05-10T03:12:38.360Z,63.10
2023-05-10T03:15:21.814Z,63.00
2023-05-10T03:18:02.968Z,63.00
2023-05-10T03:20:39.866Z,63.00
2023-05-10T03:23:19.399Z,63.00
2023-05-10T03:25:49.015Z,63.10
2023-05-10T03:28:18.890Z,63.10
2023-05-10T03:30:47.214Z,63.30
2023-05-10T03:33:15.269Z,63.40
2023-05-10T03:35:46.823Z,63.60
2023-05-10T03:38:14.709Z,63.70
2023-05-10T03:40:41.624Z,63.70
2023-05-10T03:43:09.408Z,63.90
2023-05-10T03:45:36.668Z,64.00
2023-05-10T03:48:03.893Z,64.10
2023-05-10T03:50:31.112Z,63.90
2023-05-10T03:52:58.576Z,63.70
2023-05-10T03:55:25.720Z,63.80
2023-05-10T03:57:54.757Z,63.70
2023-05-10T04:00:22.934Z,63.40
2023-05-10T04:02:53.442Z,63.90
2023-05-10T04:05:21.173Z,63.20
2023-05-10T04:07:50.246Z,63.30
2023-05-10T04:10:17.952Z,63.60
2023-05-10T04:12:45.053Z,63.50
2023-05-10T04:15:12.033Z,63.80
2023-05-10T04:17:39.115Z,63.90
2023-05-10T04:20:06.802Z,63.90
2023-05-10T04:22:33.755Z,64.00
2023-05-10T04:25:00.681Z,64.40
2023-05-10T04:27:28.182Z,64.50
2023-05-10T04:29:55.193Z,64.30
2023-05-10T04:32:22.151Z,64.30
2023-05-10T04:34:49.229Z,64.20
2023-05-10T04:37:16.209Z,64.10
2023-05-10T04:39:43.210Z,64.00
2023-05-10T04:42:10.440Z,64.20
2023-05-10T04:44:37.474Z,64.30
2023-05-10T04:47:04.611Z,64.30
2023-05-10T04:49:31.506Z,64.20
2023-05-10T04:51:58.522Z,64.30
2023-05-10T04:54:25.402Z,64.10
2023-05-10T04:56:52.387Z,64.40
2023-05-10T04:59:19.430Z,64.50
2023-05-10T05:01:46.459Z,64.40
2023-05-10T05:04:13.642Z,64.10
2023-05-10T05:06:40.470Z,64.40
2023-05-10T05:09:07.590Z,64.50
2023-05-10T05:11:34.486Z,64.30
2023-05-10T05:14:01.449Z,64.50
2023-05-10T05:16:28.408Z,64.40
2023-05-10T05:18:55.575Z,64.40
2023-05-10T05:21:23.395Z,64.30
2023-05-10T05:23:50.423Z,64.20
2023-05-10T05:26:17.463Z,64.20
2023-05-10T05:28:44.659Z,63.80
2023-05-10T05:31:11.689Z,63.60
2023-05-10T05:33:39.346Z,63.70
2023-05-10T05:36:07.110Z,63.80
2023-05-10T05:38:34.535Z,64.10
2023-05-10T05:41:01.794Z,64.10
2023-05-10T05:43:29.009Z,64.00
2023-05-10T05:45:56.271Z,64.30
2023-05-10T05:48:23.467Z,64.90
2023-05-10T05:50:51.109Z,64.20
2023-05-10T05:53:19.200Z,64.30
2023-05-10T05:55:54.171Z,64.50
2023-05-10T05:58:21.900Z,64.10
2023-05-10T06:00:48.983Z,64.10
2023-05-10T06:03:16.554Z,64.10
2023-05-10T06:05:43.544Z,64.00
2023-05-10T06:08:10.827Z,63.90
2023-05-10T06:10:38.271Z,63.90
2023-05-10T06:13:05.336Z,63.90
2023-05-10T06:15:33.627Z,64.10
2023-05-10T06:18:00.768Z,64.10
2023-05-10T06:20:27.826Z,64.00
2023-05-10T06:22:54.897Z,64.10
2023-05-10T06:25:22.443Z,64.20
2023-05-10T06:27:53.467Z,64.00
2023-05-10T06:30:21.281Z,64.10
2023-05-10T06:32:48.310Z,64.00
2023-05-10T06:35:15.532Z,63.90
2023-05-10T06:37:42.555Z,63.60
2023-05-10T06:40:10.376Z,63.50
2023-05-10T06:42:37.691Z,63.80
2023-05-10T06:45:05.084Z,63.80
2023-05-10T06:47:32.784Z,63.90
2023-05-10T06:49:59.798Z,64.10
2023-05-10T06:52:26.736Z,64.10
2023-05-10T06:54:53.766Z,63.80
2023-05-10T06:57:31.366Z,63.90
2023-05-10T07:00:05.071Z,63.30
2023-05-10T07:02:32.127Z,62.70
2023-05-10T07:05:01.649Z,62.60
2023-05-10T07:07:29.883Z,62.40
2023-05-10T07:09:58.532Z,62.10
2023-05-10T07:12:26.508Z,62.00
2023-05-10T07:14:53.490Z,61.90
2023-05-10T07:17:20.572Z,62.00
2023-05-10T07:19:47.578Z,62.10
2023-05-10T07:22:14.426Z,62.10
2023-05-10T07:24:41.841Z,61.50
2023-05-10T07:27:08.904Z,61.40
2023-05-10T07:29:36.669Z,60.70
2023-05-10T07:32:03.732Z,60.50
2023-05-10T07:34:31.436Z,59.80
2023-05-10T07:37:02.199Z,60.00
2023-05-10T07:39:29.345Z,60.10
2023-05-10T07:41:56.749Z,60.50
2023-05-10T07:44:23.889Z,60.40
2023-05-10T07:46:50.780Z,59.80
2023-05-10T07:49:17.823Z,59.70
2023-05-10T07:51:44.787Z,59.50
2023-05-10T07:54:11.713Z,59.50
2023-05-10T07:56:38.946Z,59.50
2023-05-10T07:59:08.958Z,59.30
2023-05-10T08:01:37.151Z,59.30
2023-05-10T08:04:04.241Z,59.50
2023-05-10T08:06:31.416Z,60.10
2023-05-10T08:08:58.620Z,59.00
2023-05-10T08:11:26.016Z,58.80
2023-05-10T08:13:53.223Z,58.70
2023-05-10T08:16:20.535Z,58.30
2023-05-10T08:18:48.257Z,58.60
2023-05-10T08:21:16.088Z,58.80
2023-05-10T08:23:44.885Z,59.20
2023-05-10T08:26:12.677Z,59.00
2023-05-10T08:28:39.862Z,59.00
2023-05-10T08:31:07.062Z,58.80
2023-05-10T08:33:34.220Z,59.00
2023-05-10T08:36:01.238Z,59.00
2023-05-10T08:38:28.166Z,58.10
2023-05-10T08:41:00.167Z,57.60
2023-05-10T08:43:31.569Z,57.70
2023-05-10T08:46:03.798Z,58.10
2023-05-10T08:48:32.270Z,58.40
2023-05-10T08:51:01.231Z,58.00
2023-05-10T08:53:29.732Z,57.40
2023-05-10T08:55:58.006Z,57.20
2023-05-10T08:58:26.245Z,57.50
2023-05-10T09:00:54.383Z,57.50
2023-05-10T09:03:22.553Z,57.00
2023-05-10T09:05:52.858Z,57.10
2023-05-10T09:08:21.220Z,57.10
2023-05-10T09:10:49.970Z,56.70
2023-05-10T09:13:19.127Z,56.80
2023-05-10T09:15:47.639Z,56.90
2023-05-10T09:18:15.483Z,56.80
2023-05-10T09:20:43.362Z,57.10
2023-05-10T09:23:10.963Z,56.60
2023-05-10T09:25:39.791Z,56.60
2023-05-10T09:28:11.237Z,56.70
2023-05-10T09:30:39.225Z,57.00
2023-05-10T09:33:07.275Z,57.30
2023-05-10T09:35:40.495Z,57.50
2023-05-10T09:38:08.088Z,57.80
2023-05-10T09:40:35.396Z,58.00
2023-05-10T09:43:11.835Z,58.20
2023-05-10T09:45:39.595Z,58.10
2023-05-10T09:48:07.767Z,58.50
2023-05-10T09:50:35.517Z,59.10
2023-05-10T09:53:04.416Z,58.70
2023-05-10T09:55:37.373Z,59.20
2023-05-10T09:58:05.420Z,60.00
2023-05-10T10:00:43.580Z,60.70
2023-05-10T10:03:18.469Z,61.90
2023-05-10T10:05:47.104Z,63.20
2023-05-10T10:08:15.039Z,64.00
2023-05-10T10:10:42.597Z,64.30
2023-05-10T10:13:09.689Z,64.70
2023-05-10T10:15:36.813Z,65.20
2023-05-10T10:18:07.155Z,65.50
2023-05-10T10:20:34.687Z,65.90
2023-05-10T10:23:01.593Z,66.10
2023-05-10T10:25:28.745Z,66.50
2023-05-10T10:27:55.630Z,67.10
2023-05-10T10:30:22.788Z,67.00
2023-05-10T10:33:27.320Z,67.20
2023-05-10T10:35:59.445Z,67.60
2023-05-10T10:38:27.266Z,68.30
2023-05-10T10:41:13.064Z,68.50
2023-05-10T10:43:40.923Z,68.50
2023-05-10T10:46:18.182Z,68.40
2023-05-10T10:48:50.540Z,68.40
2023-05-10T10:51:18.293Z,68.60
2023-05-10T10:53:45.864Z,69.20
2023-05-10T10:56:16.448Z,69.70
2023-05-10T10:58:54.933Z,69.60
2023-05-10T11:01:22.977Z,70.20
2023-05-10T11:04:05.508Z,70.10
2023-05-10T11:06:37.359Z,69.60
2023-05-10T11:09:12.461Z,69.50
2023-05-10T11:11:59.527Z,69.30
2023-05-10T11:14:26.850Z,69.70
2023-05-10T11:16:53.919Z,70.00
2023-05-10T11:19:22.066Z,70.20
2023-05-10T11:22:12.626Z,69.60
2023-05-10T11:24:40.674Z,69.80
2023-05-10T11:27:08.876Z,70.20
2023-05-10T11:29:38.191Z,70.30
2023-05-10T11:32:09.930Z,70.50
2023-05-10T11:34:37.444Z,70.50
2023-05-10T11:37:04.874Z,70.60
2023-05-10T11:39:33.184Z,70.70
2023-05-10T11:42:01.320Z,71.00
2023-05-10T11:44:34.992Z,71.20
2023-05-10T11:47:04.937Z,71.20
2023-05-10T11:49:32.260Z,71.70
2023-05-10T11:52:09.968Z,72.00
2023-05-10T11:54:56.257Z,71.70
2023-05-10T11:57:33.308Z,71.70
2023-05-10T12:00:02.171Z,71.30
2023-05-10T12:02:41.084Z,71.30
2023-05-10T12:05:12.789Z,72.00
2023-05-10T12:07:44.873Z,72.20
2023-05-10T12:10:20.778Z,72.50
2023-05-10T12:12:49.363Z,72.40
2023-05-10T12:15:24.625Z,72.00
2023-05-10T12:17:52.348Z,72.00
2023-05-10T12:20:24.508Z,71.80
2023-05-10T12:22:53.841Z,72.30
2023-05-10T12:25:22.858Z,72.80
2023-05-10T12:27:54.768Z,73.00
2023-05-10T12:30:29.705Z,73.00
2023-05-10T12:33:02.990Z,73.00
2023-05-10T12:35:33.729Z,72.80
2023-05-10T12:38:00.993Z,72.90
2023-05-10T12:40:27.863Z,72.80
2023-05-10T12:42:54.901Z,72.50
2023-05-10T12:45:23.101Z,71.80
2023-05-10T12:47:50.713Z,72.30
2023-05-10T12:50:18.109Z,72.80
2023-05-10T12:52:46.177Z,73.30
2023-05-10T12:55:13.826Z,73.70
2023-05-10T12:57:41.346Z,73.80
2023-05-10T13:00:10.255Z,73.70
2023-05-10T13:02:37.716Z,74.10
2023-05-10T13:05:05.915Z,74.00
2023-05-10T13:07:33.311Z,74.10
2023-05-10T13:10:00.773Z,73.90
2023-05-10T13:12:28.370Z,74.10
2023-05-10T13:14:55.621Z,73.80
2023-05-10T13:17:22.734Z,73.90
2023-05-10T13:19:50.052Z,73.50
2023-05-10T13:22:22.959Z,73.50
2023-05-10T13:24:56.157Z,73.20
2023-05-10T13:27:23.049Z,73.90
2023-05-10T13:29:50.026Z,74.50
2023-05-10T13:32:17.213Z,75.20
2023-05-10T13:34:45.147Z,75.50
2023-05-10T13:37:12.503Z,75.50
2023-05-10T13:39:39.526Z,75.20
2023-05-10T13:42:06.558Z,74.80
2023-05-10T13:44:34.760Z,74.60
2023-05-10T13:47:01.681Z,74.30
2023-05-10T13:49:28.698Z,74.40
2023-05-10T13:51:55.616Z,74.60
2023-05-10T13:54:23.299Z,74.70
2023-05-10T13:56:50.294Z,74.60
2023-05-10T13:59:17.182Z,74.40
2023-05-10T14:01:44.845Z,74.50
2023-05-10T14:04:12.487Z,74.50
2023-05-10T14:06:39.497Z,74.80
2023-05-10T14:09:06.357Z,75.20
2023-05-10T14:11:33.292Z,75.40
2023-05-10T14:14:00.167Z,75.60
2023-05-10T14:16:28.037Z,75.70
2023-05-10T14:18:55.047Z,75.80
2023-05-10T14:21:21.914Z,75.90
2023-05-10T14:23:48.954Z,76.20
2023-05-10T14:26:15.832Z,76.30
2023-05-10T14:28:43.119Z,76.40
2023-05-10T14:31:10.052Z,76.80
2023-05-10T14:33:36.891Z,76.80
2023-05-10T14:36:04.925Z,77.10
2023-05-10T14:38:31.984Z,77.40
2023-05-10T14:40:59.005Z,77.60
2023-05-10T14:43:25.914Z,77.60
2023-05-10T14:45:53.136Z,77.70
2023-05-10T14:48:20.075Z,77.70
2023-05-10T14:50:47.078Z,77.70
2023-05-10T14:53:14.022Z,77.60
2023-05-10T14:55:41.025Z,77.80
2023-05-10T14:58:09.490Z,78.00
2023-05-10T15:00:36.472Z,78.00
2023-05-10T15:03:04.565Z,78.30
2023-05-10T15:05:32.086Z,78.50
2023-05-10T15:07:59.606Z,78.50
2023-05-10T15:10:26.582Z,78.70
2023-05-10T15:12:53.552Z,78.20
2023-05-10T15:15:20.567Z,78.10
2023-05-10T15:17:48.297Z,77.70
2023-05-10T15:20:15.373Z,77.20
2023-05-10T15:22:42.221Z,77.40
2023-05-10T15:25:09.269Z,77.40
2023-05-10T15:27:36.355Z,77.80
2023-05-10T15:30:03.692Z,77.90
2023-05-10T15:32:30.714Z,78.00
2023-05-10T15:34:57.986Z,78.10
2023-05-10T15:37:25.540Z,78.20
2023-05-10T15:39:52.450Z,78.30
2023-05-10T15:42:19.343Z,78.60
2023-05-10T15:44:51.146Z,78.60
2023-05-10T15:47:18.133Z,78.80
2023-05-10T15:49:45.038Z,78.90
2023-05-10T15:52:12.130Z,78.20
2023-05-10T15:54:39.486Z,77.90
2023-05-10T15:57:06.343Z,78.00
2023-05-10T15:59:33.679Z,77.50
2023-05-10T16:02:00.854Z,77.60
2023-05-10T16:04:27.721Z,77.80
2023-05-10T16:06:54.620Z,78.60
2023-05-10T16:09:21.975Z,78.00
2023-05-10T16:11:48.935Z,78.10
2023-05-10T16:14:17.116Z,78.20
2023-05-10T16:16:44.101Z,78.40
2023-05-10T16:19:11.275Z,78.40
2023-05-10T16:21:38.579Z,79.30
2023-05-10T16:24:06.241Z,78.80
2023-05-10T16:26:34.644Z,78.70
2023-05-10T16:29:01.640Z,78.60
2023-05-10T16:31:28.579Z,78.50
2023-05-10T16:33:55.485Z,79.00
2023-05-10T16:36:22.428Z,78.90
2023-05-10T16:38:49.310Z,79.00
2023-05-10T16:41:16.551Z,79.00
2023-05-10T16:43:43.537Z,79.20
2023-05-10T16:46:11.653Z,79.30
2023-05-10T16:48:38.990Z,79.20
2023-05-10T16:51:05.975Z,79.10
2023-05-10T16:53:32.987Z,79.90
2023-05-10T16:56:00.147Z,80.00
2023-05-10T16:58:27.095Z,80.10
2023-05-10T17:00:54.142Z,79.60
2023-05-10T17:03:21.161Z,79.40
2023-05-10T17:05:48.641Z,79.40
2023-05-10T17:08:17.074Z,79.30
2023-05-10T17:10:43.996Z,79.60
2023-05-10T17:13:11.194Z,79.60
2023-05-10T17:15:39.342Z,79.50
2023-05-10T17:18:07.535Z,79.80
2023-05-10T17:20:34.908Z,79.50
2023-05-10T17:23:03.179Z,79.60
2023-05-10T17:25:30.267Z,80.40
2023-05-10T17:27:57.099Z,80.00
2023-05-10T17:30:27.442Z,80.00
2023-05-10T17:32:54.793Z,80.20
2023-05-10T17:35:21.934Z,80.40
2023-05-10T17:37:48.908Z,80.60
2023-05-10T17:40:15.869Z,80.90
2023-05-10T17:42:43.001Z,81.10
2023-05-10T17:45:10.538Z,81.50
2023-05-10T17:47:37.732Z,81.40
2023-05-10T17:50:05.718Z,81.40
2023-05-10T17:52:33.711Z,81.60
2023-05-10T17:55:00.914Z,81.50
2023-05-10T17:57:28.151Z,81.70
2023-05-10T17:59:55.063Z,81.80
2023-05-10T18:02:21.923Z,82.00
2023-05-10T18:04:49.419Z,81.90
2023-05-10T18:07:16.481Z,82.00
2023-05-10T18:09:43.524Z,81.80
2023-05-10T18:12:10.415Z,81.70
2023-05-10T18:14:41.211Z,81.90
2023-05-10T18:17:09.926Z,81.70
2023-05-10T18:19:37.006Z,81.60
2023-05-10T18:22:04.311Z,81.80
2023-05-10T18:24:38.915Z,82.00
2023-05-10T18:27:10.207Z,81.80
2023-05-10T18:29:37.500Z,82.10
2023-05-10T18:32:04.904Z,82.00
2023-05-10T18:34:31.820Z,82.20
2023-05-10T18:36:59.197Z,82.30
2023-05-10T18:39:26.047Z,82.40
2023-05-10T18:41:53.127Z,82.40
2023-05-10T18:44:21.926Z,82.70
2023-05-10T18:46:48.953Z,83.00
2023-05-10T18:49:16.364Z,83.20
2023-05-10T18:51:43.666Z,83.10
2023-05-10T18:54:10.593Z,83.00
2023-05-10T18:56:39.590Z,83.10
2023-05-10T18:59:06.583Z,83.50
2023-05-10T19:01:33.580Z,83.50
2023-05-10T19:04:00.678Z,83.70
2023-05-10T19:06:27.664Z,83.90
2023-05-10T19:08:54.591Z,83.70
2023-05-10T19:11:22.277Z,83.90
2023-05-10T19:13:49.595Z,84.00
2023-05-10T19:16:23.057Z,83.30
2023-05-10T19:18:51.240Z,83.60
2023-05-10T19:21:18.154Z,83.60
2023-05-10T19:23:48.182Z,83.80
2023-05-10T19:26:15.197Z,84.00
2023-05-10T19:28:42.097Z,84.20
2023-05-10T19:31:09.538Z,84.00
2023-05-10T19:33:38.433Z,84.10
2023-05-10T19:36:05.926Z,84.30
2023-05-10T19:38:33.986Z,84.20
2023-05-10T19:41:01.155Z,84.40
2023-05-10T19:43:31.476Z,84.70
2023-05-10T19:46:01.914Z,84.80
2023-05-10T19:48:29.225Z,85.10
2023-05-10T19:51:04.566Z,85.10
2023-05-10T19:53:33.136Z,85.30
2023-05-10T19:56:06.508Z,85.40
2023-05-10T19:58:34.094Z,85.50
2023-05-10T20:01:01.457Z,85.50
2023-05-10T20:03:29.231Z,85.70
2023-05-10T20:05:56.188Z,86.00
2023-05-10T20:08:23.097Z,86.00
2023-05-10T20:10:49.911Z,85.90
2023-05-10T20:13:16.806Z,85.80
2023-05-10T20:15:43.890Z,86.10
2023-05-10T20:18:11.065Z,86.10
2023-05-10T20:20:38.595Z,86.10
2023-05-10T20:23:05.649Z,86.20
2023-05-10T20:25:32.651Z,86.00
2023-05-10T20:27:59.585Z,85.50
2023-05-10T20:30:26.840Z,85.40
2023-05-10T20:32:53.790Z,85.30
2023-05-10T20:35:20.816Z,85.60
2023-05-10T20:37:48.452Z,84.90
2023-05-10T20:40:15.806Z,84.80
2023-05-10T20:42:42.858Z,84.80
2023-05-10T20:45:10.367Z,84.20
2023-05-10T20:47:37.438Z,83.60
2023-05-10T20:50:04.988Z,83.50
2023-05-10T20:52:31.902Z,83.50
2023-05-10T20:54:58.890Z,83.90
2023-05-10T20:57:25.801Z,84.00
2023-05-10T20:59:52.974Z,84.20
2023-05-10T21:02:20.075Z,84.20
2023-05-10T21:04:46.943Z,84.20
2023-05-10T21:07:13.886Z,84.20
2023-05-10T21:09:40.718Z,84.40
2023-05-10T21:12:09.051Z,84.50
2023-05-10T21:14:36.014Z,84.40
2023-05-10T21:17:02.931Z,84.40
2023-05-10T21:19:29.848Z,84.60
2023-05-10T21:21:58.959Z,84.90
2023-05-10T21:24:26.094Z,85.00
2023-05-10T21:26:53.008Z,85.00
2023-05-10T21:29:19.966Z,85.10
2023-05-10T21:31:47.217Z,85.10
2023-05-10T21:34:14.206Z,85.40
2023-05-10T21:36:41.120Z,85.30
2023-05-10T21:39:08.123Z,85.60
2023-05-10T21:41:35.084Z,85.80
2023-05-10T21:44:02.168Z,86.10
2023-05-10T21:46:29.521Z,86.30
2023-05-10T21:48:56.755Z,86.70
2023-05-10T21:51:23.787Z,86.90
2023-05-10T21:53:50.892Z,87.20
2023-05-10T21:56:17.911Z,87.70
2023-05-10T21:58:44.843Z,87.70
2023-05-10T22:01:11.844Z,87.90
2023-05-10T22:03:39.305Z,88.00
2023-05-10T22:06:06.421Z,87.70
2023-05-10T22:08:33.446Z,87.70
2023-05-10T22:11:00.606Z,87.90
2023-05-10T22:13:27.550Z,87.90
2023-05-10T22:15:54.549Z,88.10
2023-05-10T22:18:21.569Z,88.10
2023-05-10T22:20:48.645Z,88.20
2023-05-10T22:23:15.628Z,88.10
2023-05-10T22:25:42.776Z,88.10
2023-05-10T22:28:10.220Z,88.40
2023-05-10T22:30:37.406Z,88.20
2023-05-10T22:33:04.434Z,88.50
2023-05-10T22:35:31.557Z,88.50
2023-05-10T22:37:58.628Z,88.50
2023-05-10T22:40:25.823Z,88.90
2023-05-10T22:42:52.825Z,88.80
2023-05-10T22:45:19.816Z,88.80
2023-05-10T22:47:47.347Z,88.90
2023-05-10T22:50:14.767Z,89.00
2023-05-10T22:52:41.732Z,89.10
2023-05-10T22:55:09.912Z,89.30
2023-05-10T22:57:37.191Z,89.50
2023-05-10T23:00:05.229Z,89.30
2023-05-10T23:02:32.465Z,89.40
2023-05-10T23:04:59.447Z,89.60
2023-05-10T23:07:26.582Z,89.90
2023-05-10T23:09:53.425Z,89.70
2023-05-10T23:12:20.349Z,89.50
2023-05-10T23:14:47.701Z,89.10
2023-05-10T23:17:14.715Z,89.30
2023-05-10T23:19:42.037Z,89.30
2023-05-10T23:22:09.984Z,89.30
2023-05-10T23:24:36.868Z,89.60
2023-05-10T23:27:03.857Z,89.50
2023-05-10T23:29:32.060Z,90.00
2023-05-10T23:31:59.093Z,89.80
2023-05-10T23:34:26.320Z,89.80
2023-05-10T23:36:53.369Z,90.00
2023-05-10T23:39:20.852Z,90.00
2023-05-10T23:41:47.985Z,90.00
2023-05-10T23:44:15.062Z,90.20
2023-05-10T23:46:42.032Z,90.20
2023-05-10T23:49:08.924Z,90.10
2023-05-10T23:55:18.818Z,90.20
2023-05-10T23:57:45.751Z,90.30
